createdAt,value
2023-01-29T00:01:13.895Z,101825.50
2023-01-29T00:03:43.843Z,101823.06
2023-01-29T00:06:16.031Z,101825.84
2023-01-29T00:08:45.621Z,101817.28
2023-01-29T00:11:16.624Z,101818.25
2023-01-29T00:13:46.356Z,101810.56
2023-01-29T00:16:16.077Z,101814.16
2023-01-29T00:18:46.011Z,101806.41
2023-01-29T00:21:20.046Z,101802.13
2023-01-29T00:23:49.839Z,101800.38
2023-01-29T00:26:20.068Z,101791.78
2023-01-29T00:28:51.055Z,101794.31
2023-01-29T00:31:22.557Z,101787.47
2023-01-29T00:33:52.699Z,101792.63
2023-01-29T00:36:25.413Z,101791.78
2023-01-29T00:38:58.820Z,101792.75
2023-01-29T00:41:42.415Z,101782.41
2023-01-29T00:44:24.652Z,101788.38
2023-01-29T00:46:55.039Z,101783.91
2023-01-29T00:49:25.967Z,101794.19
2023-01-29T00:52:10.662Z,101789.81
2023-01-29T00:54:40.309Z,101794.94
2023-01-29T00:57:09.896Z,101787.19
2023-01-29T00:59:40.491Z,101786.25
2023-01-29T01:02:22.616Z,101789.66
2023-01-29T01:04:52.238Z,101786.25
2023-01-29T01:07:24.610Z,101776.91
2023-01-29T01:10:06.489Z,101778.75
2023-01-29T01:12:36.745Z,101776.16
2023-01-29T01:15:06.777Z,101780.44
2023-01-29T01:17:36.486Z,101783.97
2023-01-29T01:20:06.500Z,101782.97
2023-01-29T01:22:38.722Z,101783.78
2023-01-29T01:25:09.132Z,101776.78
2023-01-29T01:27:41.216Z,101791.38
2023-01-29T01:30:13.952Z,101792.13
2023-01-29T01:32:45.178Z,101795.38
2023-01-29T01:35:15.049Z,101791.84
2023-01-29T01:37:47.285Z,101785.81
2023-01-29T01:40:20.218Z,101780.69
2023-01-29T01:42:51.346Z,101783.34
2023-01-29T01:45:24.379Z,101773.88
2023-01-29T01:47:55.662Z,101768.72
2023-01-29T01:50:30.119Z,101756.63
2023-01-29T01:53:07.325Z,101745.53
2023-01-29T01:55:37.962Z,101737.84
2023-01-29T01:58:12.766Z,101737.09
2023-01-29T02:00:42.828Z,101757.88
2023-01-29T02:03:25.833Z,101759.66
2023-01-29T02:06:09.140Z,101751.13
2023-01-29T02:08:58.988Z,101753.84
2023-01-29T02:11:28.602Z,101759.03
2023-01-29T02:13:58.387Z,101763.22
2023-01-29T02:16:28.534Z,101760.66
2023-01-29T02:18:58.584Z,101754.56
2023-01-29T02:22:01.041Z,101753.59
2023-01-29T02:25:10.478Z,101767.31
2023-01-29T02:28:05.733Z,101771.69
2023-01-29T02:30:41.019Z,101770.69
2023-01-29T02:33:17.350Z,101768.00
2023-01-29T02:35:52.642Z,101775.78
2023-01-29T02:38:27.396Z,101780.94
2023-01-29T02:40:59.064Z,101777.41
2023-01-29T02:43:33.065Z,101781.56
2023-01-29T02:46:11.004Z,101796.00
2023-01-29T02:48:46.010Z,101802.75
2023-01-29T02:51:21.818Z,101802.75
2023-01-29T02:53:57.435Z,101800.09
2023-01-29T02:56:31.374Z,101809.59
2023-01-29T02:59:05.000Z,101809.75
2023-01-29T03:01:40.654Z,101810.75
2023-01-29T03:04:14.387Z,101806.66
2023-01-29T03:06:46.257Z,101798.97
2023-01-29T03:09:19.165Z,101790.34
2023-01-29T03:11:51.714Z,101790.28
2023-01-29T03:14:47.293Z,101791.97
2023-01-29T03:17:19.572Z,101785.94
2023-01-29T03:19:50.057Z,101783.41
2023-01-29T03:22:27.915Z,101770.47
2023-01-29T03:25:13.169Z,101777.41
2023-01-29T03:27:59.494Z,101772.25
2023-01-29T03:30:49.791Z,101777.41
2023-01-29T03:33:48.942Z,101777.41
2023-01-29T03:36:22.424Z,101782.59
2023-01-29T03:38:52.251Z,101781.72
2023-01-29T03:41:28.593Z,101780.00
2023-01-29T03:44:03.309Z,101791.16
2023-01-29T03:46:35.269Z,101801.38
2023-01-29T03:49:12.947Z,101811.66
2023-01-29T03:51:59.292Z,101794.31
2023-01-29T03:54:32.417Z,101797.56
2023-01-29T03:57:06.093Z,101788.94
2023-01-29T03:59:41.751Z,101791.59
2023-01-29T04:02:27.926Z,101783.16
2023-01-29T04:05:06.942Z,101781.78
2023-01-29T04:07:44.501Z,101780.19
2023-01-29T04:10:19.936Z,101773.44
2023-01-29T04:12:52.754Z,101770.97
2023-01-29T04:15:23.428Z,101776.28
2023-01-29T04:17:55.563Z,101764.19
2023-01-29T04:20:40.882Z,101773.78
2023-01-29T04:23:22.949Z,101757.47
2023-01-29T04:25:59.498Z,101749.88
2023-01-29T04:28:48.938Z,101749.19
2023-01-29T04:31:19.138Z,101740.66
2023-01-29T04:33:55.921Z,101744.19
2023-01-29T04:36:37.276Z,101733.94
2023-01-29T04:39:14.264Z,101740.94
2023-01-29T04:41:51.020Z,101743.59
2023-01-29T04:44:23.916Z,101742.78
2023-01-29T04:47:00.899Z,101739.44
2023-01-29T04:49:36.753Z,101738.69
2023-01-29T04:52:15.058Z,101737.91
2023-01-29T04:54:53.883Z,101738.84
2023-01-29T04:57:28.114Z,101720.75
2023-01-29T04:59:58.676Z,101713.03
2023-01-29T05:02:30.066Z,101713.03
2023-01-29T05:05:00.468Z,101713.13
2023-01-29T05:07:33.891Z,101732.09
2023-01-29T05:10:03.642Z,101720.88
2023-01-29T05:12:33.412Z,101717.44
2023-01-29T05:15:05.428Z,101713.22
2023-01-29T05:17:35.023Z,101714.16
2023-01-29T05:20:04.643Z,101707.28
2023-01-29T05:22:40.262Z,101720.34
2023-01-29T05:25:23.698Z,101706.66
2023-01-29T05:28:07.260Z,101706.69
2023-01-29T05:30:38.586Z,101704.16
2023-01-29T05:33:13.564Z,101705.94
2023-01-29T05:35:43.205Z,101707.72
2023-01-29T05:38:15.834Z,101699.94
2023-01-29T05:40:45.724Z,101697.34
2023-01-29T05:43:18.557Z,101702.53
2023-01-29T05:45:55.344Z,101707.72
2023-01-29T05:48:25.244Z,101699.91
2023-01-29T05:50:55.036Z,101699.00
2023-01-29T05:53:27.197Z,101700.66
2023-01-29T05:55:57.274Z,101701.41
2023-01-29T05:58:26.865Z,101703.94
2023-01-29T06:00:56.530Z,101703.81
2023-01-29T06:03:26.102Z,101710.66
2023-01-29T06:05:56.154Z,101714.88
2023-01-29T06:08:28.381Z,101721.69
2023-01-29T06:10:57.993Z,101714.81
2023-01-29T06:13:27.680Z,101723.38
2023-01-29T06:15:57.333Z,101719.94
2023-01-29T06:18:26.904Z,101722.50
2023-01-29T06:20:56.486Z,101721.63
2023-01-29T06:23:28.626Z,101732.91
2023-01-29T06:26:02.666Z,101739.03
2023-01-29T06:28:32.315Z,101738.41
2023-01-29T06:31:21.014Z,101741.28
2023-01-29T06:33:52.029Z,101746.94
2023-01-29T06:36:21.629Z,101741.31
2023-01-29T06:38:53.778Z,101754.69
2023-01-29T06:41:25.669Z,101755.16
2023-01-29T06:43:55.452Z,101757.31
2023-01-29T06:46:25.233Z,101755.94
2023-01-29T06:48:54.889Z,101760.63
2023-01-29T06:51:24.658Z,101764.31
2023-01-29T06:53:57.209Z,101754.19
2023-01-29T06:56:27.082Z,101746.66
2023-01-29T06:58:56.682Z,101738.16
2023-01-29T07:01:35.783Z,101740.91
2023-01-29T07:04:06.062Z,101749.72
2023-01-29T07:06:36.243Z,101749.84
2023-01-29T07:09:08.470Z,101742.25
2023-01-29T07:11:38.221Z,101746.66
2023-01-29T07:14:08.114Z,101747.59
2023-01-29T07:16:37.818Z,101739.81
2023-01-29T07:19:07.381Z,101743.34
2023-01-29T07:21:37.020Z,101736.44
2023-01-29T07:24:09.906Z,101746.03
2023-01-29T07:26:39.604Z,101746.06
2023-01-29T07:29:09.148Z,101746.94
2023-01-29T07:31:38.928Z,101742.72
2023-01-29T07:34:08.540Z,101740.19
2023-01-29T07:36:38.127Z,101750.63
2023-01-29T07:39:10.299Z,101755.06
2023-01-29T07:41:39.908Z,101749.19
2023-01-29T07:44:18.309Z,101740.81
2023-01-29T07:46:47.899Z,101747.13
2023-01-29T07:49:17.686Z,101733.50
2023-01-29T07:51:47.297Z,101731.00
2023-01-29T07:54:19.446Z,101731.19
2023-01-29T07:56:49.038Z,101727.88
2023-01-29T07:59:18.809Z,101730.59
2023-01-29T08:01:48.432Z,101729.81
2023-01-29T08:04:17.976Z,101726.47
2023-01-29T08:06:47.636Z,101720.56
2023-01-29T08:09:19.831Z,101719.88
2023-01-29T08:11:49.434Z,101723.50
2023-01-29T08:14:19.005Z,101735.75
2023-01-29T08:16:48.658Z,101728.88
2023-01-29T08:19:18.286Z,101725.41
2023-01-29T08:21:47.896Z,101727.19
2023-01-29T08:24:20.409Z,101741.94
2023-01-29T08:26:50.046Z,101736.00
2023-01-29T08:29:19.633Z,101727.38
2023-01-29T08:31:49.367Z,101730.88
2023-01-29T08:34:19.007Z,101734.47
2023-01-29T08:36:48.576Z,101727.66
2023-01-29T08:39:20.741Z,101714.78
2023-01-29T08:41:50.358Z,101712.34
2023-01-29T08:44:20.124Z,101697.81
2023-01-29T08:46:49.710Z,101696.25
2023-01-29T08:49:19.505Z,101710.34
2023-01-29T08:51:49.137Z,101713.94
2023-01-29T08:54:21.370Z,101697.47
2023-01-29T08:56:51.273Z,101709.47
2023-01-29T08:59:22.868Z,101710.25
2023-01-29T09:01:52.511Z,101714.66
2023-01-29T09:04:22.071Z,101707.84
2023-01-29T09:06:51.658Z,101708.84
2023-01-29T09:09:23.935Z,101705.50
2023-01-29T09:11:53.624Z,101695.19
2023-01-29T09:14:23.380Z,101703.09
2023-01-29T09:16:52.980Z,101699.75
2023-01-29T09:19:22.542Z,101697.22
2023-01-29T09:21:52.311Z,101701.56
2023-01-29T09:24:24.524Z,101703.38
2023-01-29T09:26:54.230Z,101703.47
2023-01-29T09:29:23.890Z,101698.47
2023-01-29T09:31:53.593Z,101688.31
2023-01-29T09:34:23.260Z,101686.78
2023-01-29T09:36:52.834Z,101692.06
2023-01-29T09:39:25.029Z,101691.47
2023-01-29T09:41:59.856Z,101679.56
2023-01-29T09:44:41.374Z,101678.06
2023-01-29T09:47:14.702Z,101671.41
2023-01-29T09:49:48.038Z,101669.91
2023-01-29T09:52:21.209Z,101666.75
2023-01-29T09:55:05.160Z,101666.22
2023-01-29T09:57:49.568Z,101656.75
2023-01-29T10:00:23.660Z,101667.97
2023-01-29T10:03:21.791Z,101659.59
2023-01-29T10:06:07.423Z,101670.31
2023-01-29T10:08:51.196Z,101666.28
2023-01-29T10:11:30.494Z,101665.53
2023-01-29T10:14:07.396Z,101654.22
2023-01-29T10:16:50.819Z,101649.81
2023-01-29T10:19:54.062Z,101662.88
2023-01-29T10:22:39.886Z,101657.00
2023-01-29T10:25:13.530Z,101657.25
2023-01-29T10:27:50.266Z,101651.34
2023-01-29T10:30:36.226Z,101662.75
2023-01-29T10:33:07.717Z,101663.66
2023-01-29T10:35:39.148Z,101662.88
2023-01-29T10:38:24.334Z,101656.03
2023-01-29T10:40:58.558Z,101655.09
2023-01-29T10:43:33.051Z,101656.78
2023-01-29T10:46:13.225Z,101647.00
2023-01-29T10:48:58.388Z,101634.75
2023-01-29T10:51:38.908Z,101629.53
2023-01-29T10:54:21.115Z,101625.22
2023-01-29T10:57:02.169Z,101621.00
2023-01-29T10:59:46.362Z,101608.84
2023-01-29T11:02:18.642Z,101600.06
2023-01-29T11:04:48.446Z,101587.81
2023-01-29T11:07:19.874Z,101585.19
2023-01-29T11:09:55.316Z,101580.81
2023-01-29T11:12:27.397Z,101583.56
2023-01-29T11:15:02.982Z,101567.13
2023-01-29T11:17:32.577Z,101568.94
2023-01-29T11:20:02.150Z,101574.34
2023-01-29T11:22:33.014Z,101573.66
2023-01-29T11:25:14.065Z,101572.03
2023-01-29T11:27:47.172Z,101568.53
2023-01-29T11:30:26.325Z,101566.81
2023-01-29T11:33:04.167Z,101565.19
2023-01-29T11:35:33.831Z,101560.94
2023-01-29T11:38:11.026Z,101564.56
2023-01-29T11:40:42.555Z,101563.75
2023-01-29T11:43:19.566Z,101550.75
2023-01-29T11:45:52.879Z,101544.78
2023-01-29T11:48:24.285Z,101541.31
2023-01-29T11:50:55.720Z,101541.31
2023-01-29T11:53:30.268Z,101541.22
2023-01-29T11:55:59.990Z,101536.06
2023-01-29T11:58:31.688Z,101526.47
2023-01-29T12:01:04.480Z,101527.31
2023-01-29T12:03:37.607Z,101522.13
2023-01-29T12:06:09.978Z,101516.09
2023-01-29T12:08:41.056Z,101512.50
2023-01-29T12:11:12.818Z,101505.44
2023-01-29T12:13:43.705Z,101507.03
2023-01-29T12:16:26.351Z,101503.44
2023-01-29T12:18:59.978Z,101506.97
2023-01-29T12:21:33.293Z,101489.66
2023-01-29T12:24:06.763Z,101480.19
2023-01-29T12:26:38.979Z,101465.47
2023-01-29T12:29:19.191Z,101458.56
2023-01-29T12:31:54.443Z,101451.63
2023-01-29T12:34:30.484Z,101443.72
2023-01-29T12:37:06.119Z,101433.25
2023-01-29T12:39:35.674Z,101418.41
2023-01-29T12:42:08.098Z,101407.06
2023-01-29T12:44:42.453Z,101400.97
2023-01-29T12:47:17.955Z,101399.19
2023-01-29T12:49:49.487Z,101403.50
2023-01-29T12:52:22.192Z,101398.28
2023-01-29T12:54:56.235Z,101382.59
2023-01-29T12:57:28.999Z,101383.44
2023-01-29T13:00:02.189Z,101380.78
2023-01-29T13:02:40.806Z,101366.81
2023-01-29T13:05:20.735Z,101362.50
2023-01-29T13:07:52.819Z,101356.44
2023-01-29T13:10:27.641Z,101347.63
2023-01-29T13:13:01.638Z,101344.16
2023-01-29T13:15:33.659Z,101331.09
2023-01-29T13:18:36.633Z,101339.88
2023-01-29T13:21:07.634Z,101339.09
2023-01-29T13:23:40.024Z,101333.91
2023-01-29T13:26:09.667Z,101333.13
2023-01-29T13:28:39.482Z,101336.56
2023-01-29T13:31:21.680Z,101329.53
2023-01-29T13:34:01.813Z,101320.75
2023-01-29T13:36:32.974Z,101316.38
2023-01-29T13:39:05.715Z,101327.72
2023-01-29T13:41:40.260Z,101330.34
2023-01-29T13:44:20.628Z,101330.31
2023-01-29T13:46:57.587Z,101328.56
2023-01-29T13:49:41.500Z,101327.69
2023-01-29T13:52:22.310Z,101335.50
2023-01-29T13:54:57.930Z,101332.88
2023-01-29T13:57:40.568Z,101331.09
2023-01-29T14:01:02.351Z,101342.38
2023-01-29T14:04:04.590Z,101344.97
2023-01-29T14:06:52.521Z,101348.47
2023-01-29T14:09:58.198Z,101341.56
2023-01-29T14:12:43.939Z,101350.25
2023-01-29T14:15:31.230Z,101336.34
2023-01-29T14:18:07.801Z,101335.50
2023-01-29T14:20:45.972Z,101337.28
2023-01-29T14:23:26.994Z,101332.97
2023-01-29T14:25:56.752Z,101341.66
2023-01-29T14:28:28.787Z,101328.56
2023-01-29T14:30:58.605Z,101323.34
2023-01-29T14:33:36.792Z,101330.34
2023-01-29T14:36:08.298Z,101327.72
2023-01-29T14:38:41.941Z,101331.19
2023-01-29T14:41:19.671Z,101321.56
2023-01-29T14:43:49.291Z,101319.81
2023-01-29T14:46:47.004Z,101323.28
2023-01-29T14:49:52.056Z,101323.28
2023-01-29T14:52:23.893Z,101321.53
2023-01-29T14:54:56.717Z,101320.66
2023-01-29T14:57:26.432Z,101321.50
2023-01-29T14:59:59.085Z,101329.25
2023-01-29T15:02:37.135Z,101317.97
2023-01-29T15:05:10.509Z,101331.00
2023-01-29T15:07:42.614Z,101325.81
2023-01-29T15:10:22.772Z,101328.41
2023-01-29T15:12:55.548Z,101317.09
2023-01-29T15:15:35.982Z,101317.94
2023-01-29T15:18:08.597Z,101311.81
2023-01-29T15:20:39.474Z,101313.56
2023-01-29T15:23:27.859Z,101313.56
2023-01-29T15:26:01.804Z,101313.59
2023-01-29T15:28:32.280Z,101312.72
2023-01-29T15:31:04.126Z,101310.13
2023-01-29T15:33:34.365Z,101305.75
2023-01-29T15:36:07.823Z,101299.69
2023-01-29T15:38:38.021Z,101305.81
2023-01-29T15:41:20.129Z,101304.06
2023-01-29T15:43:51.662Z,101297.97
2023-01-29T15:46:25.029Z,101293.63
2023-01-29T15:48:55.428Z,101289.25
2023-01-29T15:51:26.910Z,101284.94
2023-01-29T15:53:58.390Z,101280.56
2023-01-29T15:56:32.378Z,101276.25
2023-01-29T15:59:07.322Z,101270.97
2023-01-29T16:01:38.955Z,101276.22
2023-01-29T16:04:08.988Z,101277.97
2023-01-29T16:06:40.351Z,101271.03
2023-01-29T16:09:10.531Z,101275.34
2023-01-29T16:11:43.029Z,101275.34
2023-01-29T16:14:15.554Z,101283.25
2023-01-29T16:16:48.556Z,101272.78
2023-01-29T16:19:24.163Z,101271.91
2023-01-29T16:21:58.565Z,101272.78
2023-01-29T16:24:28.381Z,101277.13
2023-01-29T16:27:04.022Z,101262.28
2023-01-29T16:29:35.492Z,101269.28
2023-01-29T16:32:06.279Z,101267.53
2023-01-29T16:34:38.468Z,101261.47
2023-01-29T16:37:10.495Z,101253.63
2023-01-29T16:39:42.572Z,101263.22
2023-01-29T16:42:30.936Z,101257.97
2023-01-29T16:45:03.188Z,101251.91
2023-01-29T16:47:38.304Z,101253.63
2023-01-29T16:50:36.057Z,101236.25
2023-01-29T16:53:15.010Z,101236.25
2023-01-29T16:55:46.990Z,101231.88
2023-01-29T16:58:21.056Z,101231.03
2023-01-29T17:00:52.683Z,101232.75
2023-01-29T17:03:23.075Z,101233.63
2023-01-29T17:05:52.661Z,101233.66
2023-01-29T17:08:26.537Z,101228.41
2023-01-29T17:10:56.255Z,101228.41
2023-01-29T17:13:32.339Z,101230.16
2023-01-29T17:16:03.369Z,101223.19
2023-01-29T17:18:33.218Z,101222.34
2023-01-29T17:21:02.798Z,101226.72
2023-01-29T17:23:32.357Z,101213.66
2023-01-29T17:26:02.543Z,101207.59
2023-01-29T17:28:34.712Z,101210.19
2023-01-29T17:31:06.890Z,101202.38
2023-01-29T17:33:37.327Z,101202.38
2023-01-29T17:36:07.436Z,101199.75
2023-01-29T17:38:37.052Z,101196.28
2023-01-29T17:41:09.311Z,101196.28
2023-01-29T17:43:41.455Z,101198.91
2023-01-29T17:46:14.435Z,101208.50
2023-01-29T17:48:44.315Z,101202.44
2023-01-29T17:51:16.177Z,101199.81
2023-01-29T17:53:47.323Z,101198.06
2023-01-29T17:56:18.818Z,101199.81
2023-01-29T17:58:51.179Z,101205.94
2023-01-29T18:01:20.763Z,101198.97
2023-01-29T18:03:50.381Z,101201.59
2023-01-29T18:06:25.007Z,101196.38
2023-01-29T18:08:54.555Z,101191.13
2023-01-29T18:11:24.157Z,101188.53
2023-01-29T18:13:56.334Z,101189.41
2023-01-29T18:16:27.267Z,101179.81
2023-01-29T18:18:56.864Z,101177.22
2023-01-29T18:21:26.567Z,101181.59
2023-01-29T18:23:56.495Z,101181.59
2023-01-29T18:26:26.134Z,101172.88
2023-01-29T18:28:58.395Z,101172.91
2023-01-29T18:31:28.109Z,101172.91
2023-01-29T18:33:57.691Z,101160.69
2023-01-29T18:36:27.327Z,101155.47
2023-01-29T18:38:56.954Z,101145.00
2023-01-29T18:41:26.690Z,101140.63
2023-01-29T18:43:58.847Z,101140.63
2023-01-29T18:46:28.507Z,101135.41
2023-01-29T18:48:58.130Z,101126.69
2023-01-29T18:51:27.753Z,101130.16
2023-01-29T18:53:57.348Z,101136.22
2023-01-29T18:56:26.922Z,101135.38
2023-01-29T18:58:59.834Z,101126.63
2023-01-29T19:01:29.467Z,101121.41
2023-01-29T19:04:00.298Z,101129.25
2023-01-29T19:06:30.284Z,101120.56
2023-01-29T19:08:59.832Z,101125.78
2023-01-29T19:11:29.397Z,101121.41
2023-01-29T19:14:01.575Z,101116.19
2023-01-29T19:16:31.166Z,101112.72
2023-01-29T19:19:00.750Z,101120.56
2023-01-29T19:21:30.585Z,101104.00
2023-01-29T19:24:00.141Z,101102.25
2023-01-29T19:26:33.920Z,101104.88
2023-01-29T19:29:09.241Z,101099.66
2023-01-29T19:31:39.166Z,101102.28
2023-01-29T19:34:09.237Z,101091.81
2023-01-29T19:36:39.017Z,101093.56
2023-01-29T19:39:08.641Z,101090.06
2023-01-29T19:41:38.263Z,101100.53
2023-01-29T19:44:10.586Z,101102.28
2023-01-29T19:46:40.253Z,101090.97
2023-01-29T19:49:10.690Z,101079.63
2023-01-29T19:51:40.927Z,101084.00
2023-01-29T19:54:12.051Z,101066.56
2023-01-29T19:56:41.641Z,101041.31
2023-01-29T19:59:14.179Z,101048.25
2023-01-29T20:01:43.849Z,101040.41
2023-01-29T20:04:13.910Z,101041.28
2023-01-29T20:06:43.494Z,101035.19
2023-01-29T20:09:13.075Z,101030.81
2023-01-29T20:11:42.725Z,101034.28
2023-01-29T20:14:15.092Z,101029.06
2023-01-29T20:16:44.703Z,101016.03
2023-01-29T20:19:15.261Z,101023.84
2023-01-29T20:21:50.065Z,101021.25
2023-01-29T20:24:19.630Z,101015.13
2023-01-29T20:26:49.283Z,101011.66
2023-01-29T20:29:21.463Z,101000.31
2023-01-29T20:31:51.203Z,100993.34
2023-01-29T20:34:20.901Z,100982.88
2023-01-29T20:36:50.477Z,100980.22
2023-01-29T20:39:20.254Z,100977.59
2023-01-29T20:41:49.871Z,100986.28
2023-01-29T20:44:22.031Z,100963.66
2023-01-29T20:46:51.748Z,100959.34
2023-01-29T20:49:21.820Z,100956.72
2023-01-29T20:51:51.417Z,100959.34
2023-01-29T20:54:21.198Z,100961.06
2023-01-29T20:56:50.977Z,100957.59
2023-01-29T20:59:23.734Z,100961.94
2023-01-29T21:01:53.346Z,100959.34
2023-01-29T21:04:23.287Z,100960.19
2023-01-29T21:06:52.882Z,100944.53
2023-01-29T21:09:22.910Z,100947.16
2023-01-29T21:11:52.472Z,100941.94
2023-01-29T21:14:24.927Z,100941.94
2023-01-29T21:16:54.525Z,100931.50
2023-01-29T21:19:24.101Z,100934.97
2023-01-29T21:21:53.710Z,100930.63
2023-01-29T21:24:23.288Z,100943.69
2023-01-29T21:26:52.993Z,100934.09
2023-01-29T21:29:25.142Z,100930.63
2023-01-29T21:31:54.781Z,100935.84
2023-01-29T21:34:24.449Z,100941.94
2023-01-29T21:36:54.597Z,100941.06
2023-01-29T21:39:26.375Z,100913.22
2023-01-29T21:42:08.552Z,100912.38
2023-01-29T21:44:40.890Z,100915.84
2023-01-29T21:47:14.897Z,100927.13
2023-01-29T21:49:45.174Z,100921.94
2023-01-29T21:52:15.721Z,100921.06
2023-01-29T21:54:49.022Z,100921.94
2023-01-29T21:57:19.522Z,100918.47
2023-01-29T21:59:52.927Z,100922.84
2023-01-29T22:02:24.000Z,100931.53
2023-01-29T22:05:08.741Z,100933.28
2023-01-29T22:07:47.010Z,100925.44
2023-01-29T22:10:17.286Z,100937.63
2023-01-29T22:12:47.349Z,100941.09
2023-01-29T22:15:21.131Z,100942.88
2023-01-29T22:17:52.178Z,100944.63
2023-01-29T22:20:29.613Z,100946.38
2023-01-29T22:23:00.992Z,100933.31
2023-01-29T22:25:32.208Z,100930.69
2023-01-29T22:28:01.849Z,100931.59
2023-01-29T22:30:34.028Z,100920.25
2023-01-29T22:33:03.695Z,100913.28
2023-01-29T22:35:33.562Z,100915.91
2023-01-29T22:38:03.121Z,100928.09
2023-01-29T22:40:32.926Z,100922.88
2023-01-29T22:43:02.509Z,100911.56
2023-01-29T22:45:35.026Z,100913.31
2023-01-29T22:48:06.056Z,100907.22
2023-01-29T22:50:36.742Z,100899.41
2023-01-29T22:53:06.390Z,100900.28
2023-01-29T22:55:36.124Z,100894.19
2023-01-29T22:58:05.733Z,100889.84
2023-01-29T23:00:37.856Z,100882.91
2023-01-29T23:03:07.418Z,100875.06
2023-01-29T23:05:37.116Z,100857.63
2023-01-29T23:08:06.716Z,100852.41
2023-01-29T23:10:36.302Z,100844.56
2023-01-29T23:13:05.860Z,100821.94
2023-01-29T23:15:37.997Z,100824.50
2023-01-29T23:18:08.603Z,100796.63
2023-01-29T23:20:38.182Z,100780.94
2023-01-29T23:23:07.730Z,100788.75
2023-01-29T23:25:49.775Z,100777.44
2023-01-29T23:28:19.345Z,100787.84
2023-01-29T23:30:52.194Z,100766.91
2023-01-29T23:33:21.979Z,100773.88
2023-01-29T23:35:51.563Z,100779.09
2023-01-29T23:38:21.119Z,100779.94
2023-01-29T23:40:51.013Z,100797.38
2023-01-29T23:43:22.603Z,100784.25
2023-01-29T23:45:54.833Z,100779.88
2023-01-29T23:48:24.867Z,100788.56
2023-01-29T23:50:54.570Z,100768.50
2023-01-29T23:53:24.367Z,100774.59
2023-01-29T23:56:04.494Z,100766.72
2023-01-29T23:58:35.008Z,100771.09
